createdAt,value
2018-03-03T00:00:36.215Z,52.95
2018-03-03T00:03:05.585Z,52.99
2018-03-03T00:05:36.599Z,53.16
2018-03-03T00:08:06.085Z,53.39
2018-03-03T00:10:35.596Z,53.34
2018-03-03T00:13:05.580Z,53.17
2018-03-03T00:15:34.788Z,52.87
2018-03-03T00:18:07.112Z,53.32
2018-03-03T00:20:37.233Z,53.61
2018-03-03T00:23:09.124Z,53.91
2018-03-03T00:25:39.256Z,53.91
2018-03-03T00:28:10.923Z,53.93
2018-03-03T00:30:43.385Z,54.16
2018-03-03T00:33:12.899Z,54.08
2018-03-03T00:35:42.696Z,54.14
2018-03-03T00:38:15.607Z,54.38
2018-03-03T00:40:45.610Z,54.57
2018-03-03T00:43:18.744Z,54.41
2018-03-03T00:45:48.455Z,54.77
2018-03-03T00:48:18.109Z,54.52
2018-03-03T00:50:47.255Z,54.89
2018-03-03T00:53:18.544Z,54.79
2018-03-03T00:55:49.305Z,55.15
2018-03-03T00:58:20.244Z,55.20
2018-03-03T01:00:52.900Z,55.43
2018-03-03T01:03:28.461Z,55.40
2018-03-03T01:05:58.084Z,55.32
2018-03-03T01:08:28.420Z,55.41
2018-03-03T01:11:06.320Z,55.31
2018-03-03T01:13:36.652Z,55.48
2018-03-03T01:16:05.863Z,55.78
2018-03-03T01:18:35.503Z,55.62
2018-03-03T01:21:04.872Z,55.59
2018-03-03T01:23:35.583Z,55.68
2018-03-03T01:26:06.579Z,55.55
2018-03-03T01:28:36.949Z,55.45
2018-03-03T01:31:07.219Z,55.42
2018-03-03T01:33:36.816Z,55.89
2018-03-03T01:36:06.058Z,55.71
2018-03-03T01:38:36.440Z,55.84
2018-03-03T01:41:07.681Z,55.76
2018-03-03T01:43:39.248Z,55.33
2018-03-03T01:46:09.269Z,55.46
2018-03-03T01:48:40.884Z,55.72
2018-03-03T01:54:08.484Z,55.47
2018-03-03T01:56:37.417Z,55.79
2018-03-03T01:59:06.230Z,56.02
2018-03-03T02:01:35.291Z,55.67
2018-03-03T02:04:04.104Z,55.79
2018-03-03T02:06:33.010Z,55.89
2018-03-03T02:09:01.870Z,56.59
2018-03-03T02:11:30.647Z,56.72
2018-03-03T02:13:59.727Z,56.45
2018-03-03T02:16:28.931Z,56.18
2018-03-03T02:18:58.085Z,56.61
2018-03-03T02:21:27.161Z,56.67
2018-03-03T02:23:56.403Z,56.39
2018-03-03T02:26:25.669Z,56.37
2018-03-03T02:28:54.748Z,56.74
2018-03-03T02:31:23.902Z,56.99
2018-03-03T02:33:53.520Z,56.97
2018-03-03T02:36:23.995Z,56.91
2018-03-03T02:38:54.171Z,56.22
2018-03-03T02:41:24.900Z,56.52
2018-03-03T02:43:55.389Z,56.38
2018-03-03T02:46:26.889Z,56.86
2018-03-03T02:48:58.457Z,56.57
2018-03-03T02:51:28.835Z,56.57
2018-03-03T02:54:01.242Z,56.83
2018-03-03T02:56:31.648Z,56.96
2018-03-03T02:59:03.405Z,57.48
2018-03-03T03:01:32.596Z,57.04
2018-03-03T03:04:02.603Z,57.24
2018-03-03T03:06:33.413Z,57.78
2018-03-03T03:09:04.832Z,58.14
2018-03-03T03:11:34.350Z,58.29
2018-03-03T03:14:06.181Z,58.38
2018-03-03T03:16:36.842Z,58.68
2018-03-03T03:19:07.763Z,58.79
2018-03-03T03:21:39.133Z,58.65
2018-03-03T03:24:09.732Z,58.76
2018-03-03T03:26:41.065Z,58.90
2018-03-03T03:29:11.688Z,58.70
2018-03-03T03:31:42.646Z,59.05
2018-03-03T03:34:11.743Z,59.25
2018-03-03T03:36:42.567Z,58.88
2018-03-03T03:39:13.769Z,59.12
2018-03-03T03:41:42.955Z,59.24
2018-03-03T03:44:11.745Z,59.32
2018-03-03T03:46:40.823Z,59.19
2018-03-03T03:49:09.675Z,58.74
2018-03-03T03:51:39.060Z,59.34
2018-03-03T03:54:07.975Z,59.31
2018-03-03T03:56:36.915Z,59.36
2018-03-03T03:59:05.980Z,59.40
2018-03-03T04:01:35.087Z,59.44
2018-03-03T04:04:04.123Z,59.44
2018-03-03T04:06:32.996Z,59.29
2018-03-03T04:09:02.504Z,58.76
2018-03-03T04:11:31.351Z,58.63
2018-03-03T04:14:00.141Z,58.48
2018-03-03T04:16:28.936Z,58.83
2018-03-03T04:18:58.904Z,58.94
2018-03-03T04:21:27.960Z,58.54
2018-03-03T04:23:56.719Z,58.39
2018-03-03T04:26:25.564Z,58.61
2018-03-03T04:28:54.292Z,58.74
2018-03-03T04:31:23.448Z,58.56
2018-03-03T04:33:52.558Z,58.78
2018-03-03T04:36:21.300Z,58.68
2018-03-03T04:38:50.243Z,58.86
2018-03-03T04:41:19.116Z,58.96
2018-03-03T04:43:48.209Z,58.87
2018-03-03T04:46:17.016Z,58.74
2018-03-03T04:48:46.005Z,59.04
2018-03-03T04:51:14.962Z,58.97
2018-03-03T04:53:43.637Z,58.71
2018-03-03T04:56:12.374Z,59.11
2018-03-03T04:58:41.035Z,59.26
2018-03-03T05:01:10.388Z,59.62
2018-03-03T05:06:57.443Z,59.95
2018-03-03T05:09:26.552Z,59.92
2018-03-03T05:11:55.207Z,59.81
2018-03-03T05:14:29.554Z,59.85
2018-03-03T05:17:00.508Z,59.66
2018-03-03T05:19:39.408Z,59.34
2018-03-03T05:25:24.673Z,59.39
2018-03-03T05:27:59.121Z,59.87
2018-03-03T05:30:33.297Z,60.13
2018-03-03T05:33:07.436Z,60.14
2018-03-03T05:35:40.023Z,59.67
2018-03-03T05:41:22.098Z,59.67
2018-03-03T05:43:56.797Z,59.76
2018-03-03T05:49:35.806Z,59.83
2018-03-03T05:52:10.207Z,60.28
2018-03-03T05:54:58.767Z,59.99
2018-03-03T05:57:33.476Z,60.32
2018-03-03T06:00:08.944Z,60.76
2018-03-03T06:02:45.727Z,61.30
2018-03-03T06:05:20.048Z,60.77
2018-03-03T06:07:54.588Z,60.79
2018-03-03T06:10:39.335Z,61.29
2018-03-03T06:13:08.459Z,61.39
2018-03-03T06:15:37.624Z,60.89
2018-03-03T06:18:07.519Z,61.04
2018-03-03T06:20:36.745Z,61.41
2018-03-03T06:23:05.846Z,61.46
2018-03-03T06:25:34.987Z,61.09
2018-03-03T06:28:03.864Z,61.50
2018-03-03T06:30:33.147Z,62.02
2018-03-03T06:33:02.301Z,61.87
2018-03-03T06:35:31.641Z,62.01
2018-03-03T06:38:00.753Z,62.14
2018-03-03T06:40:30.701Z,62.48
2018-03-03T06:43:00.024Z,62.55
2018-03-03T06:45:29.120Z,63.08
2018-03-03T06:47:58.204Z,62.72
2018-03-03T06:50:27.406Z,62.83
2018-03-03T06:52:57.431Z,63.26
2018-03-03T06:55:28.009Z,63.22
2018-03-03T06:57:59.179Z,63.04
2018-03-03T07:00:29.675Z,62.20
2018-03-03T07:02:59.869Z,60.92
2018-03-03T07:05:30.374Z,61.86
2018-03-03T07:08:01.653Z,61.93
2018-03-03T07:10:33.554Z,61.41
2018-03-03T07:13:04.775Z,62.45
2018-03-03T07:15:34.129Z,62.75
2018-03-03T07:18:04.037Z,61.80
2018-03-03T07:20:34.980Z,63.10
2018-03-03T07:23:04.056Z,63.19
2018-03-03T07:25:35.907Z,61.63
2018-03-03T07:28:09.356Z,62.30
2018-03-03T07:30:39.102Z,61.42
2018-03-03T07:33:10.304Z,61.27
2018-03-03T07:35:39.488Z,61.46
2018-03-03T07:38:09.763Z,61.13
2018-03-03T07:40:40.280Z,61.34
2018-03-03T07:43:10.960Z,61.24
2018-03-03T07:45:42.294Z,61.40
2018-03-03T07:48:13.751Z,61.26
2018-03-03T07:50:43.988Z,60.91
2018-03-03T07:53:15.945Z,60.80
2018-03-03T07:55:46.197Z,60.10
2018-03-03T07:58:28.530Z,59.81
2018-03-03T08:00:57.650Z,60.27
2018-03-03T08:03:26.591Z,60.52
2018-03-03T08:05:55.558Z,59.55
2018-03-03T08:08:24.623Z,59.45
2018-03-03T08:10:55.125Z,59.05
2018-03-03T08:13:26.461Z,58.45
2018-03-03T08:15:56.264Z,57.99
2018-03-03T08:18:26.694Z,57.71
2018-03-03T08:20:57.336Z,57.51
2018-03-03T08:23:28.612Z,57.07
2018-03-03T08:25:59.046Z,56.29
2018-03-03T08:28:29.647Z,55.91
2018-03-03T08:31:01.202Z,55.85
2018-03-03T08:33:31.556Z,55.24
2018-03-03T08:36:02.361Z,55.05
2018-03-03T08:38:33.994Z,55.02
2018-03-03T08:41:05.672Z,54.04
2018-03-03T08:43:35.333Z,54.37
2018-03-03T08:46:05.616Z,53.93
2018-03-03T08:48:35.928Z,53.79
2018-03-03T08:51:06.435Z,52.80
2018-03-03T08:53:36.962Z,52.91
2018-03-03T08:56:07.807Z,52.64
2018-03-03T08:58:39.073Z,51.77
2018-03-03T09:01:09.554Z,51.18
2018-03-03T09:03:42.404Z,51.04
2018-03-03T09:06:13.990Z,50.32
2018-03-03T09:08:44.506Z,49.74
2018-03-03T09:11:13.583Z,50.27
2018-03-03T09:13:42.960Z,49.46
2018-03-03T09:16:13.450Z,48.81
2018-03-03T09:18:43.983Z,47.86
2018-03-03T09:21:13.679Z,47.55
2018-03-03T09:23:44.732Z,47.17
2018-03-03T09:26:17.067Z,46.79
2018-03-03T09:28:49.388Z,46.76
2018-03-03T09:31:22.300Z,47.05
2018-03-03T09:33:52.972Z,47.06
2018-03-03T09:36:22.112Z,46.84
2018-03-03T09:38:52.351Z,47.33
2018-03-03T09:41:23.813Z,47.07
2018-03-03T09:43:54.802Z,46.76
2018-03-03T09:46:25.663Z,47.08
2018-03-03T09:48:56.975Z,46.78
2018-03-03T09:51:27.539Z,47.26
2018-03-03T09:53:58.992Z,47.16
2018-03-03T09:56:29.495Z,46.29
2018-03-03T09:59:00.250Z,46.09
2018-03-03T10:01:30.579Z,46.36
2018-03-03T10:04:01.399Z,46.17
2018-03-03T10:06:32.156Z,46.08
2018-03-03T10:09:02.944Z,46.12
2018-03-03T10:11:33.650Z,46.37
2018-03-03T10:14:04.266Z,46.37
2018-03-03T10:16:34.862Z,45.89
2018-03-03T10:19:05.485Z,45.88
2018-03-03T10:21:35.796Z,45.88
2018-03-03T10:24:07.440Z,45.40
2018-03-03T10:26:37.943Z,45.71
2018-03-03T10:29:08.859Z,45.01
2018-03-03T10:31:40.051Z,45.41
2018-03-03T10:34:11.076Z,45.03
2018-03-03T10:36:41.743Z,43.46
2018-03-03T10:39:12.624Z,44.06
2018-03-03T10:41:43.888Z,43.38
2018-03-03T10:44:14.792Z,43.38
2018-03-03T10:46:45.712Z,42.69
2018-03-03T10:49:16.592Z,42.98
2018-03-03T10:51:47.845Z,41.96
2018-03-03T10:54:18.755Z,41.06
2018-03-03T10:56:49.269Z,41.57
2018-03-03T10:59:19.919Z,40.89
2018-03-03T11:01:51.617Z,40.05
2018-03-03T11:04:22.146Z,39.96
2018-03-03T11:06:52.782Z,39.31
2018-03-03T11:09:23.709Z,39.18
2018-03-03T11:11:54.597Z,37.70
2018-03-03T11:14:24.923Z,37.28
2018-03-03T11:16:55.556Z,37.28
2018-03-03T11:19:26.226Z,37.56
2018-03-03T11:21:57.145Z,36.37
2018-03-03T11:24:26.391Z,36.14
2018-03-03T11:26:56.531Z,36.17
2018-03-03T11:29:27.561Z,36.54
2018-03-03T11:31:58.354Z,36.20
2018-03-03T11:34:29.790Z,35.69
2018-03-03T11:36:58.860Z,33.58
2018-03-03T11:39:27.946Z,34.99
2018-03-03T11:41:57.091Z,33.97
2018-03-03T11:44:26.216Z,32.83
2018-03-03T11:46:55.020Z,32.99
2018-03-03T11:49:23.921Z,32.18
2018-03-03T11:51:52.723Z,33.12
2018-03-03T11:54:21.853Z,32.79
2018-03-03T11:56:50.974Z,32.66
2018-03-03T11:59:19.782Z,31.66
2018-03-03T12:01:48.807Z,31.68
2018-03-03T12:04:17.695Z,31.33
2018-03-03T12:06:46.506Z,31.71
2018-03-03T12:09:15.586Z,31.31
2018-03-03T12:11:44.457Z,30.15
2018-03-03T12:14:13.252Z,30.16
2018-03-03T12:16:42.035Z,30.12
2018-03-03T12:19:11.233Z,30.24
2018-03-03T12:21:40.305Z,30.65
2018-03-03T12:24:09.092Z,29.60
2018-03-03T12:26:37.977Z,28.92
2018-03-03T12:29:06.753Z,29.67
2018-03-03T12:31:35.864Z,29.73
2018-03-03T12:34:04.766Z,29.23
2018-03-03T12:36:33.557Z,28.31
2018-03-03T12:39:02.649Z,28.56
2018-03-03T12:41:31.752Z,28.80
2018-03-03T12:44:00.794Z,28.44
2018-03-03T12:46:29.738Z,29.07
2018-03-03T12:48:58.811Z,29.37
2018-03-03T12:51:27.737Z,29.34
2018-03-03T12:53:56.873Z,28.46
2018-03-03T12:56:25.907Z,28.09
2018-03-03T12:58:54.688Z,27.58
2018-03-03T13:01:23.827Z,27.95
2018-03-03T13:03:52.724Z,27.85
2018-03-03T13:06:21.697Z,27.51
2018-03-03T13:08:50.683Z,27.43
2018-03-03T13:11:19.892Z,27.55
2018-03-03T13:13:48.968Z,27.60
2018-03-03T13:16:17.749Z,27.91
2018-03-03T13:18:46.795Z,27.70
2018-03-03T13:21:15.578Z,27.59
2018-03-03T13:23:44.719Z,27.55
2018-03-03T13:26:13.601Z,27.10
2018-03-03T13:28:42.751Z,27.56
2018-03-03T13:31:11.796Z,28.14
2018-03-03T13:33:40.643Z,28.18
2018-03-03T13:36:09.545Z,28.11
2018-03-03T13:38:38.328Z,28.09
2018-03-03T13:41:07.463Z,28.42
2018-03-03T13:43:36.480Z,28.10
2018-03-03T13:46:05.284Z,28.26
2018-03-03T13:48:34.235Z,28.19
2018-03-03T13:51:03.012Z,28.79
2018-03-03T13:53:31.827Z,28.77
2018-03-03T13:56:00.673Z,28.36
2018-03-03T13:58:29.778Z,28.33
2018-03-03T14:00:58.804Z,28.74
2018-03-03T14:03:27.713Z,29.48
2018-03-03T14:05:56.688Z,28.76
2018-03-03T14:08:25.584Z,28.66
2018-03-03T14:10:54.600Z,28.60
2018-03-03T14:13:23.496Z,28.75
2018-03-03T14:15:52.348Z,28.95
2018-03-03T14:18:21.555Z,28.55
2018-03-03T14:20:50.642Z,28.64
2018-03-03T14:23:19.532Z,28.22
2018-03-03T14:25:48.683Z,28.15
2018-03-03T14:28:33.242Z,28.37
2018-03-03T14:31:02.535Z,27.61
2018-03-03T14:33:31.526Z,27.40
2018-03-03T14:36:00.689Z,28.11
2018-03-03T14:38:29.543Z,27.92
2018-03-03T14:40:58.631Z,27.87
2018-03-03T14:43:27.567Z,27.80
2018-03-03T14:45:56.701Z,28.04
2018-03-03T14:48:25.805Z,27.95
2018-03-03T14:50:54.888Z,28.01
2018-03-03T14:53:24.044Z,28.20
2018-03-03T14:55:53.136Z,28.38
2018-03-03T14:58:22.220Z,28.26
2018-03-03T15:00:51.616Z,28.00
2018-03-03T15:03:20.554Z,28.54
2018-03-03T15:05:50.149Z,28.48
2018-03-03T15:08:20.959Z,28.35
2018-03-03T15:10:50.451Z,27.93
2018-03-03T15:13:21.892Z,28.10
2018-03-03T15:15:52.580Z,27.98
2018-03-03T15:18:24.072Z,28.17
2018-03-03T15:20:54.422Z,28.58
2018-03-03T15:23:25.679Z,28.80
2018-03-03T15:25:58.452Z,28.47
2018-03-03T15:28:28.280Z,28.70
2018-03-03T15:31:01.065Z,28.39
2018-03-03T15:33:30.888Z,28.54
2018-03-03T15:36:01.256Z,28.82
2018-03-03T15:38:31.561Z,29.20
2018-03-03T15:41:01.956Z,29.33
2018-03-03T15:43:36.823Z,29.71
2018-03-03T15:46:06.144Z,30.27
2018-03-03T15:48:35.770Z,30.77
2018-03-03T15:51:06.340Z,30.49
2018-03-03T15:53:36.838Z,30.84
2018-03-03T15:56:08.375Z,31.20
2018-03-03T15:58:38.888Z,31.56
2018-03-03T16:01:09.902Z,31.62
2018-03-03T16:03:40.716Z,31.88
2018-03-03T16:06:11.667Z,32.13
2018-03-03T16:08:42.628Z,32.33
2018-03-03T16:11:13.209Z,32.72
2018-03-03T16:13:43.987Z,32.52
2018-03-03T16:16:14.888Z,32.87
2018-03-03T16:18:45.691Z,32.43
2018-03-03T16:21:16.344Z,32.72
2018-03-03T16:23:47.835Z,33.09
2018-03-03T16:26:21.201Z,33.40
2018-03-03T16:28:50.613Z,33.58
2018-03-03T16:31:21.034Z,33.75
2018-03-03T16:33:51.973Z,33.91
2018-03-03T16:36:24.677Z,33.91
2018-03-03T16:38:55.814Z,34.38
2018-03-03T16:41:25.696Z,34.52
2018-03-03T16:43:55.205Z,34.70
2018-03-03T16:46:25.890Z,37.45
2018-03-03T16:48:55.714Z,35.17
2018-03-03T16:51:26.430Z,35.01
2018-03-03T16:53:57.074Z,34.77
2018-03-03T16:56:27.515Z,35.33
2018-03-03T16:58:58.128Z,35.25
2018-03-03T17:01:29.693Z,35.35
2018-03-03T17:04:00.216Z,35.54
2018-03-03T17:06:31.224Z,35.70
2018-03-03T17:09:02.143Z,35.83
2018-03-03T17:11:33.552Z,35.96
2018-03-03T17:14:04.209Z,36.15
2018-03-03T17:16:35.121Z,36.34
2018-03-03T17:19:06.487Z,36.79
2018-03-03T17:21:37.128Z,36.89
2018-03-03T17:24:08.405Z,37.07
2018-03-03T17:26:39.180Z,37.13
2018-03-03T17:29:10.475Z,37.29
2018-03-03T17:31:42.109Z,39.24
2018-03-03T17:34:12.822Z,38.01
2018-03-03T17:36:43.758Z,37.80
2018-03-03T17:39:14.251Z,37.92
2018-03-03T17:41:44.929Z,38.14
2018-03-03T17:44:15.784Z,38.28
2018-03-03T17:46:46.719Z,38.52
2018-03-03T17:49:17.651Z,38.52
2018-03-03T17:51:48.621Z,38.69
2018-03-03T17:54:19.909Z,38.99
2018-03-03T17:56:50.815Z,39.07
2018-03-03T17:59:21.744Z,39.18
2018-03-03T18:01:52.735Z,39.39
2018-03-03T18:04:23.671Z,39.76
2018-03-03T18:06:54.916Z,39.84
2018-03-03T18:09:25.832Z,40.11
2018-03-03T18:12:00.693Z,40.28
2018-03-03T18:14:30.020Z,40.59
2018-03-03T18:16:59.562Z,40.62
2018-03-03T18:19:46.134Z,40.99
2018-03-03T18:22:16.636Z,41.68
2018-03-03T18:24:46.098Z,41.60
2018-03-03T18:27:16.208Z,42.73
2018-03-03T18:29:45.391Z,42.06
2018-03-03T18:32:14.532Z,41.67
2018-03-03T18:34:43.710Z,42.28
2018-03-03T18:37:13.026Z,41.65
2018-03-03T18:39:42.272Z,41.70
2018-03-03T18:42:11.397Z,41.79
2018-03-03T18:44:40.688Z,42.10
2018-03-03T18:47:10.394Z,42.38
2018-03-03T18:49:40.922Z,42.59
2018-03-03T18:52:11.898Z,42.71
2018-03-03T18:54:42.841Z,42.96
2018-03-03T18:57:13.645Z,43.27
2018-03-03T18:59:45.312Z,65.88
2018-03-03T19:02:15.869Z,48.88
2018-03-03T19:04:46.882Z,43.60
2018-03-03T19:07:17.368Z,42.86
2018-03-03T19:09:47.931Z,42.85
2018-03-03T19:12:18.791Z,43.05
2018-03-03T19:14:49.851Z,43.26
2018-03-03T19:17:21.004Z,43.47
2018-03-03T19:19:52.033Z,43.68
2018-03-03T19:22:22.911Z,43.91
2018-03-03T19:24:53.868Z,44.12
2018-03-03T19:27:24.709Z,44.36
2018-03-03T19:29:55.708Z,44.36
2018-03-03T19:32:27.046Z,44.62
2018-03-03T19:34:58.022Z,44.82
2018-03-03T19:37:28.833Z,45.03
2018-03-03T19:39:59.721Z,45.19
2018-03-03T19:42:30.610Z,45.51
2018-03-03T19:45:01.982Z,45.44
2018-03-03T19:47:32.858Z,45.97
2018-03-03T19:50:03.817Z,46.45
2018-03-03T19:52:34.373Z,46.22
2018-03-03T19:55:04.929Z,45.95
2018-03-03T19:57:35.724Z,46.00
2018-03-03T20:00:06.716Z,46.21
2018-03-03T20:02:37.630Z,46.36
2018-03-03T20:05:16.316Z,46.53
2018-03-03T20:10:49.783Z,46.98
2018-03-03T20:13:19.253Z,47.13
2018-03-03T20:15:48.273Z,47.34
2018-03-03T20:18:19.565Z,47.43
2018-03-03T20:20:48.702Z,47.76
2018-03-03T20:23:17.710Z,47.55
2018-03-03T20:25:46.742Z,47.65
2018-03-03T20:28:15.757Z,47.91
2018-03-03T20:30:44.785Z,47.77
2018-03-03T20:33:13.971Z,48.12
2018-03-03T20:35:42.780Z,48.07
2018-03-03T20:38:11.694Z,48.54
2018-03-03T20:40:40.708Z,48.66
2018-03-03T20:43:09.832Z,48.60
2018-03-03T20:45:39.056Z,48.72
2018-03-03T20:48:08.366Z,48.69
2018-03-03T20:50:37.479Z,49.03
2018-03-03T20:53:06.606Z,49.24
2018-03-03T20:55:35.777Z,49.44
2018-03-03T20:58:05.020Z,49.45
2018-03-03T21:00:34.115Z,48.95
2018-03-03T21:03:03.370Z,49.55
2018-03-03T21:05:32.487Z,49.67
2018-03-03T21:08:02.928Z,49.61
2018-03-03T21:10:33.762Z,49.91
2018-03-03T21:13:04.496Z,49.67
2018-03-03T21:15:35.908Z,49.78
2018-03-03T21:18:06.833Z,50.07
2018-03-03T21:20:37.778Z,50.23
2018-03-03T21:23:08.656Z,49.94
2018-03-03T21:25:39.598Z,50.33
2018-03-03T21:28:11.753Z,50.26
2018-03-03T21:30:42.341Z,50.27
2018-03-03T21:33:12.925Z,50.35
2018-03-03T21:35:43.867Z,50.04
2018-03-03T21:38:14.749Z,50.36
2018-03-03T21:40:45.910Z,50.37
2018-03-03T21:43:16.748Z,50.40
2018-03-03T21:45:47.769Z,50.72
2018-03-03T21:48:18.623Z,50.67
2018-03-03T21:50:49.916Z,50.86
2018-03-03T21:53:21.232Z,50.98
2018-03-03T21:55:52.645Z,51.27
2018-03-03T21:58:23.388Z,51.19
2018-03-03T22:04:21.996Z,51.97
2018-03-03T22:06:51.192Z,51.83
2018-03-03T22:09:20.383Z,51.87
2018-03-03T22:11:49.950Z,51.87
2018-03-03T22:14:19.226Z,52.31
2018-03-03T22:16:48.851Z,52.53
2018-03-03T22:19:18.068Z,53.51
2018-03-03T22:21:46.904Z,53.68
2018-03-03T22:24:15.954Z,53.84
2018-03-03T22:26:44.888Z,54.81
2018-03-03T22:29:14.448Z,55.66
2018-03-03T22:31:44.754Z,54.51
2018-03-03T22:34:15.216Z,53.86
2018-03-03T22:36:44.296Z,53.59
2018-03-03T22:39:13.335Z,53.62
2018-03-03T22:41:42.463Z,54.09
2018-03-03T22:44:11.672Z,54.16
2018-03-03T22:46:41.105Z,54.12
2018-03-03T22:49:10.567Z,54.03
2018-03-03T22:51:39.880Z,54.38
2018-03-03T22:54:08.875Z,55.97
2018-03-03T22:56:38.009Z,56.51
2018-03-03T22:59:07.449Z,56.02
2018-03-03T23:01:36.624Z,55.22
2018-03-03T23:04:05.537Z,54.58
2018-03-03T23:06:36.039Z,54.28
2018-03-03T23:09:04.484Z,54.01
2018-03-03T23:11:33.795Z,53.82
2018-03-03T23:14:03.120Z,53.96
2018-03-03T23:16:32.339Z,54.53
2018-03-03T23:19:01.531Z,54.49
2018-03-03T23:21:30.679Z,54.38
2018-03-03T23:23:59.992Z,54.78
2018-03-03T23:26:29.713Z,54.78
2018-03-03T23:28:58.870Z,54.35
2018-03-03T23:31:29.154Z,54.36
2018-03-03T23:33:58.455Z,54.05
2018-03-03T23:36:30.000Z,54.25
2018-03-03T23:38:59.676Z,54.54
2018-03-03T23:41:31.273Z,54.95
2018-03-03T23:44:02.426Z,55.01
2018-03-03T23:46:32.661Z,55.10
2018-03-03T23:49:03.966Z,55.27
2018-03-03T23:51:34.555Z,55.43
2018-03-03T23:54:05.240Z,55.28
2018-03-03T23:56:37.763Z,55.94
2018-03-03T23:59:07.327Z,53.90
